Time;durP1;ratioP1;P1;durP2;ratioP2;P2;SDS_P1;SDS_P2;PMS_P1;PMS_P2;Temp;Humidity;BMP_temperature;BMP_pressure;BME280_temperature;BME280_humidity;BME280_pressure;Samples;Min_cycle;Max_cycle;Signal;HPM_P1;HPM_P2
2022/04/16 00:01:00;;;;;;;16.07;8.30;;;;;;;10.81;59.17;100995.80;1730787;82;25727;-61
2022/04/16 00:03:27;;;;;;;11.63;8.30;;;;;;;10.79;59.56;101007.22;1730645;82;28429;-61
2022/04/16 00:05:56;;;;;;;13.45;8.48;;;;;;;10.82;59.17;101006.09;1730702;82;25761;-61
2022/04/16 00:08:25;;;;;;;11.10;7.83;;;;;;;10.82;59.31;101004.24;1731054;82;25737;-60
2022/04/16 00:10:53;;;;;;;11.85;8.03;;;;;;;10.85;59.12;101008.03;1730457;82;26193;-61
2022/04/16 00:13:22;;;;;;;10.60;8.00;;;;;;;10.87;59.23;101004.72;1730804;82;25813;-61
2022/04/16 00:15:52;;;;;;;12.43;8.55;;;;;;;10.89;58.83;101008.61;1730829;82;27478;-61
2022/04/16 00:18:20;;;;;;;16.55;8.83;;;;;;;10.93;59.06;101008.72;1731042;82;25674;-61
2022/04/16 00:20:49;;;;;;;11.63;8.18;;;;;;;10.93;58.65;101010.91;1730679;82;25801;-61
2022/04/16 00:23:20;;;;;;;12.65;8.35;;;;;;;10.96;58.14;101003.05;1747012;81;26208;-61
2022/04/16 00:25:49;;;;;;;12.78;8.68;;;;;;;11.00;58.40;101006.33;1750078;82;25800;-61
2022/04/16 00:28:16;;;;;;;12.75;8.68;;;;;;;10.98;58.63;101011.86;1750255;80;27615;-61
2022/04/16 00:30:43;;;;;;;15.03;8.23;;;;;;;10.96;58.44;101023.23;1750013;81;25747;-61
2022/04/16 00:33:15;;;;;;;16.10;9.43;;;;;;;10.90;59.71;101021.93;1750033;81;25643;-61
2022/04/16 00:35:42;;;;;;;19.95;10.18;;;;;;;10.83;60.41;101023.95;1750103;81;26123;-61
2022/04/16 00:38:10;;;;;;;13.05;8.53;;;;;;;10.73;61.45;101030.13;1749955;82;27303;-61
2022/04/16 00:40:37;;;;;;;17.45;9.65;;;;;;;10.65;61.81;101027.23;1750076;82;27482;-61
2022/04/16 00:43:05;;;;;;;17.20;10.15;;;;;;;10.58;61.55;101020.17;1749927;82;25728;-61
2022/04/16 00:45:32;;;;;;;14.60;9.13;;;;;;;10.53;62.25;101026.45;1749975;81;25812;-61
2022/04/16 00:47:59;;;;;;;14.53;8.85;;;;;;;10.51;63.12;101022.16;1751154;81;26103;-61
2022/04/16 00:50:26;;;;;;;14.78;8.33;;;;;;;10.52;62.34;101027.42;1745312;81;25759;-61
2022/04/16 00:52:54;;;;;;;15.00;8.78;;;;;;;10.52;63.08;101030.11;1743264;81;27592;-60
2022/04/16 00:55:23;;;;;;;17.45;8.80;;;;;;;10.52;62.86;101023.86;1743047;82;25856;-61
2022/04/16 00:57:49;;;;;;;12.88;8.25;;;;;;;10.54;63.08;101028.12;1744713;82;25779;-60
2022/04/16 01:00:16;;;;;;;13.50;8.03;;;;;;;10.57;62.21;101023.84;1749862;82;26134;-61
2022/04/16 01:02:43;;;;;;;13.90;8.93;;;;;;;10.63;61.76;101020.61;1749991;82;25750;-61
2022/04/16 01:05:12;;;;;;;18.42;8.90;;;;;;;10.61;62.64;101015.02;1749766;82;27723;-61
2022/04/16 01:07:56;;;;;;;15.08;9.15;;;;;;;10.56;63.24;101019.94;1749884;82;25444;-61
2022/04/16 01:10:27;;;;;;;15.75;8.70;;;;;;;10.50;63.19;101019.97;1749825;82;25735;-61
2022/04/16 01:12:57;;;;;;;12.50;8.88;;;;;;;10.45;63.82;101023.52;1750107;82;26127;-61
2022/04/16 01:15:25;;;;;;;12.58;8.30;;;;;;;10.39;64.34;101026.73;1749971;82;25725;-61
2022/04/16 01:17:53;;;;;;;11.53;8.75;;;;;;;10.33;64.79;101029.41;1749866;81;28480;-61
2022/04/16 01:20:22;;;;;;;11.10;7.85;;;;;;;10.27;64.59;101020.52;1749873;82;25780;-61
2022/04/16 01:22:51;;;;;;;11.70;7.17;;;;;;;10.23;65.10;101026.64;1744356;82;25743;-60
2022/04/16 01:25:19;;;;;;;12.37;7.55;;;;;;;10.18;65.15;101029.72;1738695;81;26138;-61
2022/04/16 01:27:46;;;;;;;11.18;7.12;;;;;;;10.16;65.38;101025.45;1738843;81;25461;-61
2022/04/16 01:30:17;;;;;;;14.70;7.90;;;;;;;10.15;65.33;101027.78;1738747;82;28497;-61
2022/04/16 01:32:43;;;;;;;12.58;7.42;;;;;;;10.14;65.39;101028.75;1738709;82;25772;-61
2022/04/16 01:35:11;;;;;;;13.70;6.97;;;;;;;10.13;65.45;101034.61;1738717;82;26901;-61
2022/04/16 01:37:38;;;;;;;9.45;7.30;;;;;;;10.12;65.48;101026.20;1738895;82;26174;-60
2022/04/16 01:40:08;;;;;;;9.25;6.67;;;;;;;10.10;65.43;101027.28;1738649;82;25716;-61
2022/04/16 01:42:36;;;;;;;11.73;7.55;;;;;;;10.12;65.13;101026.67;1738832;82;28349;-61
2022/04/16 01:45:09;;;;;;;15.00;7.50;;;;;;;10.15;64.47;101023.74;1738585;81;25461;-61
2022/04/16 01:47:40;;;;;;;10.08;7.33;;;;;;;10.18;64.45;101012.24;1738916;82;25776;-61
2022/04/16 01:50:11;;;;;;;11.18;7.67;;;;;;;10.18;64.23;101015.41;1739750;82;26233;-61
2022/04/16 01:52:40;;;;;;;12.10;8.13;;;;;;;10.17;64.06;101020.45;1740323;82;26233;-60
2022/04/16 01:55:09;;;;;;;8.13;6.05;;;;;;;10.13;64.41;101022.50;1740602;82;27413;-61
2022/04/16 01:57:36;;;;;;;13.93;6.90;;;;;;;10.10;64.64;101024.13;1738856;82;25825;-61
2022/04/16 02:00:11;;;;;;;11.12;6.87;;;;;;;10.07;65.05;101023.53;1729061;83;25547;-61
2022/04/16 02:02:37;;;;;;;12.25;6.95;;;;;;;10.01;65.67;101017.66;1729247;83;26085;-61
2022/04/16 02:05:10;;;;;;;14.23;6.60;;;;;;;9.96;66.00;101019.02;1729186;83;25833;-61
2022/04/16 02:07:38;;;;;;;11.03;6.78;;;;;;;9.92;65.74;101015.73;1729160;83;27482;-60
2022/04/16 02:10:07;;;;;;;9.90;5.90;;;;;;;9.89;66.02;101015.12;1729041;82;25954;-61
2022/04/16 02:12:37;;;;;;;10.63;6.75;;;;;;;9.87;65.84;101008.55;1729259;82;25488;-61
2022/04/16 02:15:07;;;;;;;15.30;6.03;;;;;;;9.87;66.05;101020.14;1729101;83;26095;-61
2022/04/16 02:17:34;;;;;;;10.20;6.35;;;;;;;9.88;65.57;101026.38;1729300;82;25969;-61
2022/04/16 02:20:01;;;;;;;11.38;6.40;;;;;;;9.91;65.78;101022.58;1729049;82;27485;-60
2022/04/16 02:22:41;;;;;;;13.32;5.80;;;;;;;9.89;65.53;101018.69;1729866;82;25667;-61
2022/04/16 02:25:09;;;;;;;12.95;6.83;;;;;;;9.89;65.58;101018.69;1711869;82;26445;-60
2022/04/16 02:27:37;;;;;;;8.65;5.87;;;;;;;9.89;65.74;101013.31;1730947;82;26059;-61
2022/04/16 02:30:08;;;;;;;13.65;6.67;;;;;;;9.91;65.96;101011.33;1730699;82;25760;-61
2022/04/16 02:32:43;;;;;;;9.50;6.20;;;;;;;9.94;65.56;101007.56;1730639;82;28478;-60
2022/04/16 02:35:17;;;;;;;14.58;6.60;;;;;;;9.95;65.32;101000.70;1730600;82;25814;-61
2022/04/16 02:37:42;;;;;;;9.43;6.75;;;;;;;9.96;65.11;101004.23;1729935;82;25776;-61
2022/04/16 02:40:11;;;;;;;9.55;6.10;;;;;;;9.95;65.14;101018.17;1730770;82;26264;-61
2022/04/16 02:42:40;;;;;;;9.50;6.12;;;;;;;9.94;65.01;101008.91;1730687;82;25877;-61
2022/04/16 02:48:00;;;;;;;10.10;6.10;;;;;;;9.95;64.93;101001.21;1729689;82;25831;-61
2022/04/16 02:50:28;;;;;;;8.98;6.40;;;;;;;9.89;64.90;101003.91;1730357;82;25776;-61
2022/04/16 02:52:56;;;;;;;11.93;6.33;;;;;;;9.84;64.66;101000.25;1730584;82;26186;-62
2022/04/16 02:55:23;;;;;;;11.18;7.08;;;;;;;9.79;64.83;100996.23;1730823;82;25666;-61
2022/04/16 02:57:51;;;;;;;16.02;7.50;;;;;;;9.76;64.91;100995.13;1730870;82;28260;-62
2022/04/16 03:00:20;;;;;;;16.77;13.53;;;;;;;9.71;65.60;101003.09;1730537;82;26119;-62
2022/04/16 03:02:48;;;;;;;13.78;9.88;;;;;;;9.69;65.77;101004.17;1730876;82;25812;-61
2022/04/16 03:05:16;;;;;;;13.83;7.92;;;;;;;9.65;66.22;101012.13;1730726;82;26064;-62
2022/04/16 03:07:42;;;;;;;11.22;6.40;;;;;;;9.65;66.37;101017.50;1730830;82;25814;-62
2022/04/16 03:10:11;;;;;;;15.63;6.85;;;;;;;9.61;66.27;101018.72;1730399;81;27517;-62
2022/04/16 03:12:51;;;;;;;14.58;6.65;;;;;;;9.57;66.81;101023.98;1730721;82;25784;-62
2022/04/16 03:18:07;;;;;;;16.20;6.30;;;;;;;9.53;67.13;101017.51;1730646;81;26047;-61
2022/04/16 03:20:37;;;;;;;9.38;6.70;;;;;;;9.50;67.33;101020.93;1730773;82;25769;-62
2022/04/16 03:23:04;;;;;;;11.25;5.72;;;;;;;9.48;67.80;101024.22;1733456;81;27145;-61
2022/04/16 03:25:31;;;;;;;9.30;6.40;;;;;;;9.46;67.49;101024.36;1740136;82;25726;-62
2022/04/16 03:27:58;;;;;;;9.70;6.72;;;;;;;9.43;67.68;101017.88;1740242;82;25669;-61
2022/04/16 03:30:25;;;;;;;15.15;6.35;;;;;;;9.44;67.09;101019.59;1740370;82;26157;-62
2022/04/16 03:32:53;;;;;;;18.23;7.37;;;;;;;9.44;67.17;101018.25;1740380;82;25423;-61
2022/04/16 03:35:23;;;;;;;15.20;6.67;;;;;;;9.43;67.09;101025.09;1740282;82;28451;-61
2022/04/16 03:37:50;;;;;;;14.58;7.67;;;;;;;9.37;67.36;101016.53;1740583;82;25798;-61
2022/04/16 03:40:17;;;;;;;13.65;7.37;;;;;;;9.35;67.53;101020.32;1740428;82;25742;-61
2022/04/16 03:42:51;;;;;;;21.68;7.92;;;;;;;9.34;67.38;101015.92;1740287;82;28277;-61
2022/04/16 03:45:23;;;;;;;14.07;6.55;;;;;;;9.32;67.85;101021.42;1740475;82;26141;-61
2022/04/16 03:47:52;;;;;;;9.38;6.65;;;;;;;9.32;68.27;101017.40;1738894;82;27438;-61
2022/04/16 03:50:21;;;;;;;14.40;7.00;;;;;;;9.31;68.14;101014.84;1722960;82;25839;-61
2022/04/16 03:52:50;;;;;;;16.90;7.22;;;;;;;9.32;68.54;101016.05;1740254;82;26318;-61
2022/04/16 04:00:55;;;;;;;11.80;7.03;;;;;;;9.35;69.02;101011.80;1729072;83;27482;-61
2022/04/16 04:03:22;;;;;;;20.52;7.00;;;;;;;9.42;68.56;101009.45;1729038;82;26048;-61
2022/04/16 04:05:53;;;;;;;12.68;6.42;;;;;;;9.48;68.57;101003.61;1729128;82;25429;-61
2022/04/16 04:08:21;;;;;;;14.63;6.65;;;;;;;9.52;68.51;101011.77;1729371;82;26089;-61
2022/04/16 04:10:49;;;;;;;10.90;6.97;;;;;;;9.59;68.23;101009.45;1729022;82;26147;-61
2022/04/16 04:13:17;;;;;;;13.15;7.25;;;;;;;9.66;68.19;101012.50;1729195;82;27610;-61
2022/04/16 04:15:45;;;;;;;14.80;6.87;;;;;;;9.71;67.84;101015.18;1729011;83;25816;-61
2022/04/16 04:18:12;;;;;;;15.95;7.55;;;;;;;9.78;67.50;101017.36;1729102;82;25807;-62
2022/04/16 04:20:40;;;;;;;20.25;7.92;;;;;;;9.81;67.40;101017.13;1728997;83;26911;-61
2022/04/16 04:23:07;;;;;;;14.45;8.40;;;;;;;9.84;67.35;101021.75;1727753;82;25738;-61
2022/04/16 04:25:34;;;;;;;15.70;7.58;;;;;;;9.92;66.96;101024.30;1738636;82;27521;-61
2022/04/16 04:28:00;;;;;;;15.23;8.25;;;;;;;9.98;66.90;101023.78;1738468;81;25478;-61
2022/04/16 04:30:29;;;;;;;13.70;8.35;;;;;;;10.01;66.71;101020.34;1738645;81;25506;-62
2022/04/16 04:32:57;;;;;;;21.07;8.68;;;;;;;10.08;66.33;101023.90;1738619;82;26058;-61
2022/04/16 04:35:24;;;;;;;16.60;8.45;;;;;;;10.14;66.33;101029.59;1738598;82;25647;-62
2022/04/16 04:37:51;;;;;;;24.07;7.87;;;;;;;10.26;65.92;101027.75;1738551;81;28291;-61
2022/04/16 04:40:22;;;;;;;20.62;9.60;;;;;;;10.38;65.63;101026.37;1738516;82;25719;-61
2022/04/16 04:42:49;;;;;;;19.90;8.85;;;;;;;10.47;65.39;101019.73;1738593;81;25747;-61
2022/04/16 04:45:17;;;;;;;18.35;9.48;;;;;;;10.59;65.01;101017.84;1738488;82;25702;-61
2022/04/16 04:47:45;;;;;;;21.00;9.50;;;;;;;10.68;64.91;101020.73;1737682;82;25735;-61
2022/04/16 04:50:12;;;;;;;28.92;10.85;;;;;;;10.77;64.56;101018.09;1738150;82;28137;-61
2022/04/16 04:52:41;;;;;;;21.25;9.00;;;;;;;10.88;64.39;101021.23;1738547;81;25784;-62
2022/04/16 04:55:12;;;;;;;55.92;10.18;;;;;;;11.01;64.10;101010.25;1738722;82;25693;-61
2022/04/16 04:57:40;;;;;;;22.73;9.10;;;;;;;11.13;63.88;101020.44;1738851;82;26058;-63
2022/04/16 05:00:10;;;;;;;24.80;9.08;;;;;;;11.25;63.70;101018.52;1738696;82;25795;-61
2022/04/16 05:02:46;;;;;;;21.65;9.50;;;;;;;11.37;63.38;101021.96;1738629;81;27475;-62
2022/04/16 05:05:16;;;;;;;24.32;8.83;;;;;;;11.43;63.16;101016.02;1738523;82;25835;-61
2022/04/16 05:07:44;;;;;;;16.17;8.80;;;;;;;11.56;62.99;101018.51;1738590;82;25724;-61
2022/04/16 05:10:11;;;;;;;21.12;8.00;;;;;;;11.71;62.94;101018.47;1738607;82;26090;-61
2022/04/16 05:12:37;;;;;;;18.90;8.45;;;;;;;11.86;62.85;101010.86;1738647;81;25816;-61
2022/04/16 05:15:06;;;;;;;20.88;8.03;;;;;;;12.00;62.64;101016.86;1738432;81;29533;-61
2022/04/16 05:17:37;;;;;;;54.83;9.00;;;;;;;12.13;62.48;101020.63;1738772;82;25617;-61
2022/04/16 05:20:06;;;;;;;17.95;8.43;;;;;;;12.24;62.23;101021.02;1738615;81;25754;-61
2022/04/16 05:22:33;;;;;;;20.37;8.35;;;;;;;12.41;62.19;101020.31;1738517;82;26152;-62
2022/04/16 05:25:00;;;;;;;17.05;8.25;;;;;;;12.59;61.76;101029.03;1740017;81;25928;-62
2022/04/16 05:27:27;;;;;;;14.18;8.53;;;;;;;12.75;61.69;101031.13;1716967;83;27645;-62
2022/04/16 05:30:04;;;;;;;15.03;8.03;;;;;;;12.94;61.53;101032.45;1740697;82;25640;-61
2022/04/16 05:32:29;;;;;;;20.48;8.38;;;;;;;13.13;61.17;101028.00;1739625;82;25787;-61
2022/04/16 05:34:56;;;;;;;23.55;8.20;;;;;;;13.25;61.15;101020.56;1740184;80;26226;-61
2022/04/16 05:37:23;;;;;;;14.10;7.87;;;;;;;13.34;60.78;101019.68;1740382;82;25919;-61
2022/04/16 05:39:50;;;;;;;18.12;8.58;;;;;;;13.38;60.62;101018.40;1716823;83;27487;-61
2022/04/16 05:42:18;;;;;;;9.88;7.03;;;;;;;13.44;60.29;101027.28;1740325;82;25762;-61
2022/04/16 05:44:45;;;;;;;12.63;8.65;;;;;;;13.50;60.04;101031.25;1740740;82;25863;-61
2022/04/16 05:47:12;;;;;;;12.30;8.30;;;;;;;13.56;60.02;101017.64;1716838;83;26260;-61
2022/04/16 05:49:39;;;;;;;19.25;8.38;;;;;;;13.64;59.82;101025.84;1740869;82;25742;-62
2022/04/16 05:52:07;;;;;;;11.20;8.03;;;;;;;13.68;59.66;101017.77;1740486;82;27521;-62
2022/04/16 05:54:37;;;;;;;11.30;8.38;;;;;;;13.72;59.39;101015.12;1716825;83;25711;-61
2022/04/16 05:57:06;;;;;;;15.18;8.28;;;;;;;13.74;59.23;101008.20;1716856;83;25773;-61
2022/04/16 05:59:33;;;;;;;11.03;7.92;;;;;;;13.72;59.16;101010.20;1708953;83;26138;-59
2022/04/16 06:02:01;;;;;;;15.43;8.43;;;;;;;13.72;59.02;101010.20;1708469;84;25761;-62
2022/04/16 06:04:29;;;;;;;23.07;8.95;;;;;;;13.69;59.01;101020.83;1708080;84;27079;-61
2022/04/16 06:06:56;;;;;;;19.25;8.95;;;;;;;13.70;59.14;101024.40;1708273;84;25480;-62
2022/04/16 06:09:22;;;;;;;21.70;9.75;;;;;;;13.69;59.34;101025.39;1708200;84;25727;-62
2022/04/16 06:11:51;;;;;;;12.40;8.53;;;;;;;13.64;59.22;101028.55;1708460;84;27015;-61
2022/04/16 06:14:18;;;;;;;15.43;9.20;;;;;;;13.54;59.16;101029.09;1708357;84;25854;-61
2022/04/16 06:16:44;;;;;;;18.67;10.53;;;;;;;13.49;59.34;101042.22;1708143;84;27443;-61
2022/04/16 06:19:11;;;;;;;22.90;11.45;;;;;;;13.29;60.02;101036.33;1708136;84;25767;-61
2022/04/16 06:21:38;;;;;;;18.52;10.08;;;;;;;13.18;59.93;101045.12;1708360;84;25744;-61
2022/04/16 06:24:05;;;;;;;20.75;10.32;;;;;;;13.07;60.38;101036.70;1712483;83;25468;-62
2022/04/16 06:26:31;;;;;;;17.65;10.03;;;;;;;13.00;60.58;101045.88;1770935;81;25816;-61
2022/04/16 06:28:58;;;;;;;20.62;10.50;;;;;;;12.95;60.55;101054.92;1770962;80;27513;-61
2022/04/16 06:31:25;;;;;;;14.40;9.78;;;;;;;12.96;60.85;101049.84;1770883;81;25676;-61
2022/04/16 06:34:09;;;;;;;18.07;9.58;;;;;;;13.01;61.16;101050.28;1771079;81;25732;-62
2022/04/16 06:36:37;;;;;;;22.00;9.33;;;;;;;13.12;61.19;101056.01;1771419;81;27031;-62
2022/04/16 06:39:05;;;;;;;19.27;10.15;;;;;;;13.20;61.04;101044.48;1770955;81;25776;-61
2022/04/16 06:41:32;;;;;;;16.17;10.28;;;;;;;13.37;61.16;101047.77;1771257;79;28358;-61
2022/04/16 06:43:59;;;;;;;20.02;10.23;;;;;;;13.52;60.94;101053.58;1770908;80;25804;-61
2022/04/16 06:46:27;;;;;;;18.50;10.28;;;;;;;13.51;60.47;101043.77;1770925;79;25676;-62
2022/04/16 06:48:54;;;;;;;15.95;10.43;;;;;;;13.63;60.69;101044.41;1745501;81;26196;-62
2022/04/16 06:51:21;;;;;;;19.70;10.80;;;;;;;13.72;60.49;101044.87;1770901;81;25491;-61
2022/04/16 06:53:48;;;;;;;20.45;11.43;;;;;;;13.86;60.24;101044.86;1770937;81;28753;-61
2022/04/16 06:56:15;;;;;;;18.10;10.65;;;;;;;13.99;59.81;101041.80;1771080;81;26466;-61
2022/04/16 06:58:42;;;;;;;21.33;10.90;;;;;;;14.08;59.44;101034.13;1771065;81;25701;-62
2022/04/16 07:01:09;;;;;;;15.18;9.73;;;;;;;14.20;59.45;101040.67;1770922;81;26146;-61
2022/04/16 07:03:36;;;;;;;15.50;10.45;;;;;;;14.35;59.11;101037.77;1771028;81;25779;-62
2022/04/16 07:06:03;;;;;;;19.35;11.00;;;;;;;14.51;58.86;101040.27;1770866;81;27575;-62
2022/04/16 07:08:30;;;;;;;16.10;10.23;;;;;;;14.64;58.42;101030.40;1771224;80;25798;-61
2022/04/16 07:10:57;;;;;;;15.58;9.35;;;;;;;14.75;57.99;101030.19;1770976;81;25490;-62
2022/04/16 07:13:24;;;;;;;15.75;9.15;;;;;;;14.83;57.76;101030.25;1771009;81;27155;-62
2022/04/16 07:15:50;;;;;;;18.45;8.53;;;;;;;14.95;56.72;101026.77;1771038;81;25496;-62
2022/04/16 07:18:17;;;;;;;13.10;8.70;;;;;;;15.00;56.83;101028.52;1771240;81;28447;-62
2022/04/16 07:20:44;;;;;;;13.58;7.35;;;;;;;15.14;56.73;101031.64;1770860;81;25526;-61
2022/04/16 07:23:11;;;;;;;19.55;8.23;;;;;;;15.22;55.62;101037.11;1771118;81;25533;-62
2022/04/16 07:25:38;;;;;;;16.62;8.60;;;;;;;15.25;54.90;101039.99;1777265;79;26182;-61
2022/04/16 07:28:05;;;;;;;14.15;8.20;;;;;;;15.41;54.93;101034.69;1779233;79;26325;-62
2022/04/16 07:30:32;;;;;;;15.45;7.90;;;;;;;15.53;54.93;101037.95;1779246;80;27480;-61
2022/04/16 07:32:59;;;;;;;12.98;7.90;;;;;;;15.57;54.50;101041.19;1779052;80;27205;-62
2022/04/16 07:35:26;;;;;;;13.68;7.70;;;;;;;15.63;54.12;101041.40;1779042;80;25503;-61
2022/04/16 07:37:57;;;;;;;9.68;7.35;;;;;;;15.72;54.20;101047.69;1779498;80;26197;-62
2022/04/16 07:40:26;;;;;;;10.18;7.65;;;;;;;15.84;53.60;101055.57;1779146;80;26028;-61
2022/04/16 07:42:53;;;;;;;12.43;7.20;;;;;;;15.89;52.59;101054.07;1778756;79;27633;-61
2022/04/16 07:45:23;;;;;;;22.42;7.95;;;;;;;15.98;52.67;101045.95;1779083;79;26241;-61
2022/04/16 07:47:50;;;;;;;53.85;8.48;;;;;;;16.12;51.96;101048.02;1779981;80;25794;-61
2022/04/16 07:50:17;;;;;;;12.18;8.35;;;;;;;16.23;51.48;101049.06;1772609;80;26084;-61
2022/04/16 07:52:46;;;;;;;14.28;8.18;;;;;;;16.29;51.91;101055.70;1768833;80;26038;-62
2022/04/16 07:55:14;;;;;;;10.72;7.35;;;;;;;16.28;51.46;101048.56;1768966;80;27625;-61
2022/04/16 07:57:41;;;;;;;15.75;8.98;;;;;;;16.32;51.51;101055.86;1770839;80;25806;-61
2022/04/16 08:00:11;;;;;;;13.30;8.13;;;;;;;16.44;51.32;101062.68;1780847;79;25314;-61
2022/04/16 08:02:41;;;;;;;15.15;10.18;;;;;;;16.41;50.37;101061.65;1781135;80;26246;-61
2022/04/16 08:05:09;;;;;;;12.68;8.23;;;;;;;16.26;49.47;101064.16;1780940;80;26111;-61
2022/04/16 08:07:36;;;;;;;12.45;8.20;;;;;;;16.05;50.52;101064.63;1780831;80;27460;-61
2022/04/16 08:10:04;;;;;;;11.97;8.65;;;;;;;15.98;50.94;101069.02;1780740;79;25805;-62
2022/04/16 08:12:31;;;;;;;9.50;7.42;;;;;;;15.83;50.50;101072.30;1780920;79;25790;-62
2022/04/16 08:14:58;;;;;;;14.20;8.35;;;;;;;15.76;50.62;101074.84;1780822;79;26854;-61
2022/04/16 08:17:26;;;;;;;13.98;7.35;;;;;;;15.84;50.89;101072.69;1780142;80;25683;-61
2022/04/16 08:19:53;;;;;;;13.75;9.00;;;;;;;15.95;50.64;101080.53;1780306;80;27308;-61
2022/04/16 08:22:23;;;;;;;15.40;9.20;;;;;;;15.95;50.62;101076.47;1780669;80;25710;-61
2022/04/16 08:27:36;;;;;;;13.70;9.30;;;;;;;16.23;51.19;101069.42;1781566;79;26851;-61
2022/04/16 08:30:07;;;;;;;16.75;9.83;;;;;;;16.41;50.81;101077.41;1783035;79;25748;-61
2022/04/16 08:32:42;;;;;;;14.23;9.23;;;;;;;16.38;50.45;101068.27;1751161;81;27455;-62
2022/04/16 08:35:13;;;;;;;17.92;9.80;;;;;;;16.49;50.59;101067.61;1751268;81;25815;-61
2022/04/16 08:37:41;;;;;;;12.68;8.33;;;;;;;16.68;50.46;101057.75;1738295;81;25666;-61
2022/04/16 08:40:10;;;;;;;16.95;9.45;;;;;;;16.90;50.42;101056.73;1744260;81;26009;-61
2022/04/16 08:42:40;;;;;;;20.15;8.48;;;;;;;17.03;49.63;101063.04;1783275;79;25925;-62
2022/04/16 08:45:09;;;;;;;12.13;9.00;;;;;;;17.17;49.68;101062.85;1778688;80;27598;-62
2022/04/16 08:47:38;;;;;;;13.93;9.00;;;;;;;17.37;49.56;101060.59;1778190;80;25819;-62
2022/04/16 08:50:08;;;;;;;14.15;9.23;;;;;;;17.65;48.76;101058.31;1777752;79;25748;-62
2022/04/16 08:52:38;;;;;;;17.85;9.63;;;;;;;17.82;47.50;101056.35;1773863;80;26802;-62
2022/04/16 08:55:11;;;;;;;14.65;9.85;;;;;;;17.90;46.99;101058.69;1774432;80;25458;-62
2022/04/16 08:57:39;;;;;;;14.87;9.08;;;;;;;17.91;46.67;101057.67;1779989;80;27595;-61
2022/04/16 09:00:09;;;;;;;15.08;9.93;;;;;;;17.99;46.69;101054.44;1783220;79;25489;-62
2022/04/16 09:02:36;;;;;;;11.43;9.10;;;;;;;18.00;46.61;101049.83;1783374;79;25750;-62
2022/04/16 09:05:10;;;;;;;11.48;8.00;;;;;;;18.21;46.41;101046.99;1783489;79;26730;-62
2022/04/16 09:07:50;;;;;;;18.07;9.85;;;;;;;18.37;46.69;101039.23;1783308;79;25727;-62
2022/04/16 09:10:18;;;;;;;51.13;19.67;;;;;;;18.61;46.12;101034.09;1782086;79;27775;-62
2022/04/16 09:12:52;;;;;;;60.03;26.30;;;;;;;18.73;44.82;101041.34;1783207;80;25769;-61
2022/04/16 09:15:19;;;;;;;20.60;11.38;;;;;;;18.60;44.83;101031.89;1783097;79;26942;-62
2022/04/16 09:18:06;;;;;;;119.25;44.10;;;;;;;18.89;45.06;101025.33;1781984;79;26694;-62
2022/04/16 09:20:37;;;;;;;30.60;12.65;;;;;;;19.33;45.04;101021.83;1781648;80;25770;-61
2022/04/16 09:23:20;;;;;;;22.15;12.93;;;;;;;19.78;43.60;101020.44;1782591;80;27542;-62
2022/04/16 09:25:48;;;;;;;12.30;7.45;;;;;;;20.14;42.12;101003.73;1782841;80;26121;-62
2022/04/16 09:28:18;;;;;;;32.25;16.27;;;;;;;20.36;40.94;101018.78;1783338;79;25808;-62
2022/04/16 09:30:56;;;;;;;39.10;17.32;;;;;;;20.28;41.64;101020.61;1782973;80;26198;-62
2022/04/16 09:33:23;;;;;;;23.25;12.63;;;;;;;20.56;41.37;101014.36;1783153;80;25881;-62
2022/04/16 09:35:58;;;;;;;18.92;10.13;;;;;;;20.99;40.33;101016.19;1783402;80;27361;-62
2022/04/16 09:38:30;;;;;;;13.60;7.90;;;;;;;21.62;39.95;101007.11;1782627;80;25809;-62
2022/04/16 09:40:54;;;;;;;17.23;8.08;;;;;;;21.85;39.78;101001.30;1781216;80;25444;-62
2022/04/16 09:43:20;;;;;;;13.18;5.87;;;;;;;22.20;37.85;101000.34;1781495;80;25786;-62
2022/04/16 09:45:47;;;;;;;8.55;5.20;;;;;;;22.15;36.39;101003.70;1781666;80;25677;-62
2022/04/16 09:52:14;;;;;;;12.28;4.85;;;;;;;23.12;34.70;101001.95;1777987;79;25813;-62
2022/04/16 09:54:45;;;;;;;8.80;5.20;;;;;;;23.01;33.65;101010.81;1783066;80;25727;-62
2022/04/16 09:57:15;;;;;;;8.00;5.25;;;;;;;22.32;34.58;101004.14;1782876;80;26074;-62
2022/04/16 09:59:43;;;;;;;13.48;5.15;;;;;;;22.36;35.33;101004.05;1734829;81;25477;-62
2022/04/16 10:02:14;;;;;;;10.43;5.15;;;;;;;23.27;34.35;100997.62;1734570;82;27417;-62
2022/04/16 10:04:41;;;;;;;7.47;4.62;;;;;;;23.40;34.43;101002.73;1734449;82;25792;-62
2022/04/16 10:07:09;;;;;;;7.45;4.92;;;;;;;24.04;33.49;100998.78;1734858;82;25738;-62
2022/04/16 10:09:41;;;;;;;7.87;4.80;;;;;;;23.93;33.54;101000.30;1734522;82;26103;-62
2022/04/16 10:15:05;;;;;;;11.35;5.22;;;;;;;23.36;33.50;101000.13;1734343;82;27632;-62
2022/04/16 10:17:42;;;;;;;8.30;5.50;;;;;;;22.77;34.50;101011.80;1734330;82;25812;-62
2022/04/16 10:20:16;;;;;;;7.92;5.40;;;;;;;22.27;35.10;100998.99;1739076;82;25726;-62
2022/04/16 10:22:59;;;;;;;9.63;5.10;;;;;;;22.93;35.35;101004.19;1742957;81;26120;-62
2022/04/16 10:25:39;;;;;;;9.00;5.35;;;;;;;23.02;34.57;101001.53;1739754;81;25748;-62
2022/04/16 10:28:08;;;;;;;6.85;4.30;;;;;;;23.09;34.02;101004.27;1736877;81;28157;-62
2022/04/16 10:30:44;;;;;;;9.28;4.47;;;;;;;23.06;33.22;101004.19;1736930;82;25820;-62
2022/04/16 10:33:19;;;;;;;8.25;5.33;;;;;;;22.69;32.75;100991.95;1736808;81;25750;-62
2022/04/16 10:36:02;;;;;;;6.50;4.92;;;;;;;21.86;33.98;101011.20;1736921;82;26088;-62
2022/04/16 10:38:35;;;;;;;6.57;4.63;;;;;;;21.26;34.86;101013.13;1737107;82;25725;-62
2022/04/16 10:41:19;;;;;;;9.15;5.00;;;;;;;20.97;35.79;101002.39;1736966;81;27466;-62
2022/04/16 10:43:59;;;;;;;10.75;5.30;;;;;;;20.87;36.26;101004.95;1737078;82;25761;-62
2022/04/16 10:46:48;;;;;;;11.73;5.12;;;;;;;20.68;36.86;101009.20;1738322;82;25819;-62
2022/04/16 10:49:18;;;;;;;9.63;5.45;;;;;;;20.74;36.99;101006.23;1715457;82;26169;-62
2022/04/16 10:51:45;;;;;;;8.58;5.47;;;;;;;20.72;36.73;101008.28;1738756;81;25470;-62
2022/04/16 10:54:16;;;;;;;11.03;5.72;;;;;;;20.55;36.98;101007.70;1738378;82;27478;-62
2022/04/16 10:56:54;;;;;;;11.10;5.40;;;;;;;20.39;37.34;101010.21;1737809;81;25831;-62
2022/04/16 10:59:37;;;;;;;8.93;5.90;;;;;;;20.24;37.66;101002.08;1728707;82;25681;-62
2022/04/16 11:02:25;;;;;;;;;;;;;;;20.11;37.97;101000.05;1729392;82;26893;-62
2022/04/16 11:05:08;;;;;;;12.03;5.47;;;;;;;20.03;38.30;101007.84;1733366;82;25753;-62
2022/04/16 11:07:38;;;;;;;23.60;5.33;;;;;;;19.89;38.25;101000.55;1738359;82;27535;-63
2022/04/16 11:10:10;;;;;;;9.03;5.17;;;;;;;19.62;38.70;101002.39;1738304;82;25471;-61
2022/04/16 11:12:41;;;;;;;11.93;5.28;;;;;;;19.63;38.99;100991.80;1738648;81;25816;-61
2022/04/16 11:15:15;;;;;;;11.40;5.65;;;;;;;19.69;39.14;100989.66;1738787;81;26152;-61
2022/04/16 11:17:42;;;;;;;9.60;5.95;;;;;;;19.71;39.33;100989.50;1737925;82;25863;-63
2022/04/16 11:20:10;;;;;;;15.50;6.15;;;;;;;19.67;38.74;100989.03;1736987;82;27570;-62
2022/04/16 11:22:39;;;;;;;8.75;5.65;;;;;;;19.56;38.66;100992.25;1736802;82;25792;-62
2022/04/16 11:25:08;;;;;;;7.67;5.33;;;;;;;19.49;38.69;100995.41;1737321;82;25751;-62
2022/04/16 11:36:01;;;;;;;8.35;4.58;;;;;;;20.06;37.93;100991.58;1729963;82;25749;-63
2022/04/16 11:38:35;;;;;;;7.75;4.40;;;;;;;20.96;36.49;100985.16;1730503;82;25529;-62
2022/04/16 11:41:08;;;;;;;8.33;3.90;;;;;;;21.69;35.78;100977.89;1730769;82;26083;-62
2022/04/16 11:43:38;;;;;;;7.80;4.40;;;;;;;21.64;34.97;100978.18;1730772;81;25865;-62
2022/04/16 11:46:14;;;;;;;7.25;4.20;;;;;;;21.31;34.99;100974.20;1731041;82;28241;-62
2022/04/16 11:48:48;;;;;;;8.25;4.35;;;;;;;21.31;35.81;100969.24;1729492;81;25472;-63
2022/04/16 11:51:18;;;;;;;5.33;3.58;;;;;;;21.41;35.84;100967.84;1729247;82;25723;-62
2022/04/16 11:53:53;;;;;;;8.48;3.10;;;;;;;22.27;34.80;100970.22;1729315;83;26009;-62
2022/04/16 11:56:22;;;;;;;6.92;3.83;;;;;;;22.89;32.91;100968.11;1729319;82;26182;-62
2022/04/16 11:58:50;;;;;;;8.75;3.90;;;;;;;23.00;33.34;100973.46;1728757;82;27581;-62